sensor_id;sensor_type;location;lat;lon;timestamp;P1;durP1;ratioP1;P2;durP2;ratioP2
3121;SDS011;1571;52.524;14.104;2023-02-03T00:01:35;2.53;;;2.07;;
3121;SDS011;1571;52.524;14.104;2023-02-03T00:04:03;3.00;;;2.30;;
3121;SDS011;1571;52.524;14.104;2023-02-03T00:06:31;4.07;;;2.10;;
3121;SDS011;1571;52.524;14.104;2023-02-03T00:09:00;4.40;;;2.23;;
3121;SDS011;1571;52.524;14.104;2023-02-03T00:11:29;2.80;;;1.90;;
3121;SDS011;1571;52.524;14.104;2023-02-03T00:13:59;2.23;;;2.03;;
3121;SDS011;1571;52.524;14.104;2023-02-03T00:16:27;2.07;;;1.87;;
3121;SDS011;1571;52.524;14.104;2023-02-03T00:18:55;5.30;;;2.77;;
3121;SDS011;1571;52.524;14.104;2023-02-03T00:21:24;7.37;;;3.07;;
3121;SDS011;1571;52.524;14.104;2023-02-03T00:23:52;3.70;;;3.07;;
3121;SDS011;1571;52.524;14.104;2023-02-03T00:26:21;5.33;;;3.40;;
3121;SDS011;1571;52.524;14.104;2023-02-03T00:28:49;7.83;;;4.53;;
3121;SDS011;1571;52.524;14.104;2023-02-03T00:31:20;4.03;;;2.70;;
3121;SDS011;1571;52.524;14.104;2023-02-03T00:33:52;3.23;;;2.93;;
3121;SDS011;1571;52.524;14.104;2023-02-03T00:36:21;5.77;;;3.57;;
3121;SDS011;1571;52.524;14.104;2023-02-03T00:38:49;4.70;;;3.33;;
3121;SDS011;1571;52.524;14.104;2023-02-03T00:41:18;5.80;;;2.90;;
3121;SDS011;1571;52.524;14.104;2023-02-03T00:43:47;6.20;;;3.47;;
3121;SDS011;1571;52.524;14.104;2023-02-03T00:46:16;6.70;;;3.20;;
3121;SDS011;1571;52.524;14.104;2023-02-03T00:48:45;4.47;;;3.30;;
3121;SDS011;1571;52.524;14.104;2023-02-03T00:51:13;5.70;;;5.20;;
3121;SDS011;1571;52.524;14.104;2023-02-03T00:53:41;6.37;;;3.20;;
3121;SDS011;1571;52.524;14.104;2023-02-03T00:56:10;5.63;;;2.53;;
3121;SDS011;1571;52.524;14.104;2023-02-03T00:58:39;4.40;;;2.77;;
3121;SDS011;1571;52.524;14.104;2023-02-03T01:01:07;3.77;;;2.50;;
3121;SDS011;1571;52.524;14.104;2023-02-03T01:03:36;5.97;;;2.90;;
3121;SDS011;1571;52.524;14.104;2023-02-03T01:06:09;5.37;;;3.20;;
3121;SDS011;1571;52.524;14.104;2023-02-03T01:08:39;3.87;;;2.47;;
3121;SDS011;1571;52.524;14.104;2023-02-03T01:11:08;5.47;;;2.80;;
3121;SDS011;1571;52.524;14.104;2023-02-03T01:13:38;6.30;;;2.90;;
3121;SDS011;1571;52.524;14.104;2023-02-03T01:16:07;5.03;;;2.90;;
3121;SDS011;1571;52.524;14.104;2023-02-03T01:18:36;5.07;;;3.10;;
3121;SDS011;1571;52.524;14.104;2023-02-03T01:21:06;7.57;;;3.37;;
3121;SDS011;1571;52.524;14.104;2023-02-03T01:23:36;7.00;;;3.40;;
3121;SDS011;1571;52.524;14.104;2023-02-03T01:26:05;5.47;;;2.73;;
3121;SDS011;1571;52.524;14.104;2023-02-03T01:28:35;5.10;;;3.40;;
3121;SDS011;1571;52.524;14.104;2023-02-03T01:31:10;5.67;;;3.27;;
3121;SDS011;1571;52.524;14.104;2023-02-03T01:33:40;6.17;;;3.90;;
3121;SDS011;1571;52.524;14.104;2023-02-03T01:36:12;5.70;;;3.00;;
3121;SDS011;1571;52.524;14.104;2023-02-03T01:38:42;15.73;;;5.13;;
3121;SDS011;1571;52.524;14.104;2023-02-03T01:41:15;7.37;;;4.17;;
3121;SDS011;1571;52.524;14.104;2023-02-03T01:43:46;11.23;;;3.97;;
3121;SDS011;1571;52.524;14.104;2023-02-03T01:46:26;9.60;;;4.10;;
3121;SDS011;1571;52.524;14.104;2023-02-03T01:48:59;7.13;;;4.17;;
3121;SDS011;1571;52.524;14.104;2023-02-03T01:51:32;13.27;;;4.77;;
3121;SDS011;1571;52.524;14.104;2023-02-03T01:54:02;12.87;;;4.10;;
3121;SDS011;1571;52.524;14.104;2023-02-03T01:56:32;14.03;;;4.27;;
3121;SDS011;1571;52.524;14.104;2023-02-03T01:59:03;9.60;;;5.47;;
3121;SDS011;1571;52.524;14.104;2023-02-03T02:01:32;10.00;;;4.90;;
3121;SDS011;1571;52.524;14.104;2023-02-03T02:04:03;9.20;;;3.77;;
3121;SDS011;1571;52.524;14.104;2023-02-03T02:06:32;13.43;;;5.90;;
3121;SDS011;1571;52.524;14.104;2023-02-03T02:09:02;9.90;;;4.63;;
3121;SDS011;1571;52.524;14.104;2023-02-03T02:11:31;9.27;;;4.20;;
3121;SDS011;1571;52.524;14.104;2023-02-03T02:14:00;9.90;;;4.20;;
3121;SDS011;1571;52.524;14.104;2023-02-03T02:16:35;8.47;;;4.10;;
3121;SDS011;1571;52.524;14.104;2023-02-03T02:19:18;8.93;;;3.87;;
3121;SDS011;1571;52.524;14.104;2023-02-03T02:22:04;5.57;;;3.23;;
3121;SDS011;1571;52.524;14.104;2023-02-03T02:24:43;10.70;;;4.57;;
3121;SDS011;1571;52.524;14.104;2023-02-03T02:30:42;12.13;;;5.90;;
3121;SDS011;1571;52.524;14.104;2023-02-03T02:33:32;25.70;;;11.67;;
3121;SDS011;1571;52.524;14.104;2023-02-03T02:36:06;27.63;;;12.97;;
3121;SDS011;1571;52.524;14.104;2023-02-03T02:38:45;9.77;;;5.97;;
3121;SDS011;1571;52.524;14.104;2023-02-03T02:41:18;27.53;;;13.33;;
3121;SDS011;1571;52.524;14.104;2023-02-03T02:43:55;12.50;;;6.43;;
3121;SDS011;1571;52.524;14.104;2023-02-03T02:46:29;32.90;;;14.10;;
3121;SDS011;1571;52.524;14.104;2023-02-03T02:49:03;11.13;;;6.20;;
3121;SDS011;1571;52.524;14.104;2023-02-03T02:51:37;11.73;;;6.37;;
3121;SDS011;1571;52.524;14.104;2023-02-03T02:54:10;12.33;;;4.20;;
3121;SDS011;1571;52.524;14.104;2023-02-03T02:56:43;11.10;;;3.90;;
3121;SDS011;1571;52.524;14.104;2023-02-03T02:59:15;11.40;;;4.50;;
3121;SDS011;1571;52.524;14.104;2023-02-03T03:01:43;7.90;;;4.10;;
3121;SDS011;1571;52.524;14.104;2023-02-03T03:04:13;6.93;;;5.33;;
3121;SDS011;1571;52.524;14.104;2023-02-03T03:06:46;13.10;;;4.80;;
3121;SDS011;1571;52.524;14.104;2023-02-03T03:09:18;11.00;;;4.30;;
3121;SDS011;1571;52.524;14.104;2023-02-03T03:11:52;7.93;;;5.30;;
3121;SDS011;1571;52.524;14.104;2023-02-03T03:14:26;8.83;;;4.83;;
3121;SDS011;1571;52.524;14.104;2023-02-03T03:16:59;7.20;;;4.17;;
3121;SDS011;1571;52.524;14.104;2023-02-03T03:19:33;8.37;;;3.90;;
3121;SDS011;1571;52.524;14.104;2023-02-03T03:22:06;7.73;;;5.00;;
3121;SDS011;1571;52.524;14.104;2023-02-03T03:24:39;6.07;;;4.23;;
3121;SDS011;1571;52.524;14.104;2023-02-03T03:27:12;4.53;;;4.13;;
3121;SDS011;1571;52.524;14.104;2023-02-03T03:29:45;7.93;;;4.17;;
3121;SDS011;1571;52.524;14.104;2023-02-03T03:32:18;8.90;;;4.60;;
3121;SDS011;1571;52.524;14.104;2023-02-03T03:34:48;7.20;;;4.07;;
3121;SDS011;1571;52.524;14.104;2023-02-03T03:37:18;4.20;;;3.80;;
3121;SDS011;1571;52.524;14.104;2023-02-03T03:39:50;4.97;;;4.00;;
3121;SDS011;1571;52.524;14.104;2023-02-03T03:42:22;4.13;;;3.43;;
3121;SDS011;1571;52.524;14.104;2023-02-03T03:44:58;4.90;;;4.17;;
3121;SDS011;1571;52.524;14.104;2023-02-03T03:47:33;3.40;;;3.10;;
3121;SDS011;1571;52.524;14.104;2023-02-03T03:50:08;5.40;;;3.97;;
3121;SDS011;1571;52.524;14.104;2023-02-03T03:52:39;4.00;;;3.70;;
3121;SDS011;1571;52.524;14.104;2023-02-03T03:55:12;8.33;;;3.37;;
3121;SDS011;1571;52.524;14.104;2023-02-03T03:57:44;3.90;;;3.50;;
3121;SDS011;1571;52.524;14.104;2023-02-03T04:00:17;5.60;;;4.40;;
3121;SDS011;1571;52.524;14.104;2023-02-03T04:02:49;5.57;;;4.13;;
3121;SDS011;1571;52.524;14.104;2023-02-03T04:05:22;3.30;;;2.90;;
3121;SDS011;1571;52.524;14.104;2023-02-03T04:07:52;4.00;;;3.60;;
3121;SDS011;1571;52.524;14.104;2023-02-03T04:10:22;4.30;;;3.70;;
3121;SDS011;1571;52.524;14.104;2023-02-03T04:12:58;4.40;;;3.27;;
3121;SDS011;1571;52.524;14.104;2023-02-03T04:15:26;3.10;;;2.80;;
3121;SDS011;1571;52.524;14.104;2023-02-03T04:17:55;4.03;;;3.73;;
3121;SDS011;1571;52.524;14.104;2023-02-03T04:20:25;5.10;;;3.73;;
3121;SDS011;1571;52.524;14.104;2023-02-03T04:22:54;5.37;;;3.90;;
3121;SDS011;1571;52.524;14.104;2023-02-03T04:25:23;4.63;;;4.30;;
3121;SDS011;1571;52.524;14.104;2023-02-03T04:27:52;4.23;;;3.83;;
3121;SDS011;1571;52.524;14.104;2023-02-03T04:30:21;4.17;;;3.87;;
3121;SDS011;1571;52.524;14.104;2023-02-03T04:32:50;4.80;;;4.20;;
3121;SDS011;1571;52.524;14.104;2023-02-03T04:35:18;4.70;;;4.17;;
3121;SDS011;1571;52.524;14.104;2023-02-03T04:37:48;4.33;;;3.93;;
3121;SDS011;1571;52.524;14.104;2023-02-03T04:40:17;6.50;;;4.10;;
3121;SDS011;1571;52.524;14.104;2023-02-03T04:42:46;3.97;;;3.60;;
3121;SDS011;1571;52.524;14.104;2023-02-03T04:45:14;3.90;;;3.60;;
3121;SDS011;1571;52.524;14.104;2023-02-03T04:47:42;3.90;;;3.60;;
3121;SDS011;1571;52.524;14.104;2023-02-03T04:50:10;3.90;;;2.80;;
3121;SDS011;1571;52.524;14.104;2023-02-03T04:52:38;3.50;;;3.13;;
3121;SDS011;1571;52.524;14.104;2023-02-03T04:55:08;2.23;;;2.13;;
3121;SDS011;1571;52.524;14.104;2023-02-03T04:57:36;2.40;;;2.20;;
3121;SDS011;1571;52.524;14.104;2023-02-03T05:00:05;2.97;;;2.77;;
3121;SDS011;1571;52.524;14.104;2023-02-03T05:02:34;4.07;;;3.23;;
3121;SDS011;1571;52.524;14.104;2023-02-03T05:05:02;4.23;;;3.30;;
3121;SDS011;1571;52.524;14.104;2023-02-03T05:07:31;3.50;;;3.03;;
3121;SDS011;1571;52.524;14.104;2023-02-03T05:09:59;3.30;;;3.00;;
3121;SDS011;1571;52.524;14.104;2023-02-03T05:12:29;3.40;;;3.03;;
3121;SDS011;1571;52.524;14.104;2023-02-03T05:14:57;2.60;;;2.40;;
3121;SDS011;1571;52.524;14.104;2023-02-03T05:17:26;2.83;;;2.63;;
3121;SDS011;1571;52.524;14.104;2023-02-03T05:19:54;3.90;;;3.30;;
3121;SDS011;1571;52.524;14.104;2023-02-03T05:22:22;3.30;;;3.10;;
3121;SDS011;1571;52.524;14.104;2023-02-03T05:24:50;3.83;;;2.80;;
3121;SDS011;1571;52.524;14.104;2023-02-03T05:27:19;4.20;;;3.77;;
3121;SDS011;1571;52.524;14.104;2023-02-03T05:29:49;2.93;;;2.70;;
3121;SDS011;1571;52.524;14.104;2023-02-03T05:32:17;3.40;;;3.10;;
3121;SDS011;1571;52.524;14.104;2023-02-03T05:34:45;2.90;;;2.70;;
3121;SDS011;1571;52.524;14.104;2023-02-03T05:37:13;4.30;;;3.90;;
3121;SDS011;1571;52.524;14.104;2023-02-03T05:39:42;4.27;;;3.87;;
3121;SDS011;1571;52.524;14.104;2023-02-03T05:42:10;3.83;;;3.47;;
3121;SDS011;1571;52.524;14.104;2023-02-03T05:44:37;5.00;;;3.90;;
3121;SDS011;1571;52.524;14.104;2023-02-03T05:47:07;6.80;;;4.03;;
3121;SDS011;1571;52.524;14.104;2023-02-03T05:49:48;5.50;;;4.50;;
3121;SDS011;1571;52.524;14.104;2023-02-03T05:52:16;5.90;;;5.30;;
3121;SDS011;1571;52.524;14.104;2023-02-03T05:54:45;4.83;;;4.30;;
3121;SDS011;1571;52.524;14.104;2023-02-03T05:57:13;9.70;;;5.90;;
3121;SDS011;1571;52.524;14.104;2023-02-03T05:59:41;6.27;;;5.63;;
3121;SDS011;1571;52.524;14.104;2023-02-03T06:02:10;8.57;;;6.77;;
3121;SDS011;1571;52.524;14.104;2023-02-03T06:04:39;8.10;;;6.57;;
3121;SDS011;1571;52.524;14.104;2023-02-03T06:07:07;8.33;;;6.53;;
3121;SDS011;1571;52.524;14.104;2023-02-03T06:09:36;11.60;;;8.50;;
3121;SDS011;1571;52.524;14.104;2023-02-03T06:12:04;11.97;;;8.40;;
3121;SDS011;1571;52.524;14.104;2023-02-03T06:14:33;11.80;;;8.53;;
3121;SDS011;1571;52.524;14.104;2023-02-03T06:17:01;14.43;;;9.53;;
3121;SDS011;1571;52.524;14.104;2023-02-03T06:19:31;16.73;;;10.10;;
3121;SDS011;1571;52.524;14.104;2023-02-03T06:21:59;15.17;;;10.50;;
3121;SDS011;1571;52.524;14.104;2023-02-03T06:24:27;18.57;;;10.63;;
3121;SDS011;1571;52.524;14.104;2023-02-03T06:26:56;18.00;;;11.80;;
3121;SDS011;1571;52.524;14.104;2023-02-03T06:29:24;18.90;;;12.50;;
3121;SDS011;1571;52.524;14.104;2023-02-03T06:31:52;19.40;;;11.83;;
3121;SDS011;1571;52.524;14.104;2023-02-03T06:34:20;23.80;;;14.23;;
3121;SDS011;1571;52.524;14.104;2023-02-03T06:36:50;23.80;;;13.40;;
3121;SDS011;1571;52.524;14.104;2023-02-03T06:39:19;21.13;;;14.53;;
3121;SDS011;1571;52.524;14.104;2023-02-03T06:41:48;24.10;;;15.50;;
3121;SDS011;1571;52.524;14.104;2023-02-03T06:44:17;27.77;;;16.40;;
3121;SDS011;1571;52.524;14.104;2023-02-03T06:46:45;27.33;;;15.87;;
3121;SDS011;1571;52.524;14.104;2023-02-03T06:49:14;35.87;;;21.90;;
3121;SDS011;1571;52.524;14.104;2023-02-03T06:51:43;28.90;;;19.63;;
3121;SDS011;1571;52.524;14.104;2023-02-03T06:54:13;29.50;;;16.07;;
3121;SDS011;1571;52.524;14.104;2023-02-03T06:56:41;28.60;;;17.60;;
3121;SDS011;1571;52.524;14.104;2023-02-03T06:59:09;31.00;;;18.83;;
3121;SDS011;1571;52.524;14.104;2023-02-03T07:01:37;30.30;;;20.23;;
3121;SDS011;1571;52.524;14.104;2023-02-03T07:04:06;31.53;;;19.07;;
3121;SDS011;1571;52.524;14.104;2023-02-03T07:06:34;32.43;;;19.47;;
3121;SDS011;1571;52.524;14.104;2023-02-03T07:09:03;36.17;;;18.30;;
3121;SDS011;1571;52.524;14.104;2023-02-03T07:11:33;33.07;;;19.27;;
3121;SDS011;1571;52.524;14.104;2023-02-03T07:14:01;33.03;;;17.50;;
3121;SDS011;1571;52.524;14.104;2023-02-03T07:16:30;30.60;;;18.20;;
3121;SDS011;1571;52.524;14.104;2023-02-03T07:19:00;35.23;;;20.77;;
3121;SDS011;1571;52.524;14.104;2023-02-03T07:21:28;33.10;;;17.40;;
3121;SDS011;1571;52.524;14.104;2023-02-03T07:23:56;29.77;;;19.07;;
3121;SDS011;1571;52.524;14.104;2023-02-03T07:26:24;30.93;;;17.87;;
3121;SDS011;1571;52.524;14.104;2023-02-03T07:28:54;30.77;;;19.60;;
3121;SDS011;1571;52.524;14.104;2023-02-03T07:31:25;27.40;;;16.27;;
3121;SDS011;1571;52.524;14.104;2023-02-03T07:33:54;24.47;;;16.60;;
3121;SDS011;1571;52.524;14.104;2023-02-03T07:36:22;28.20;;;18.70;;
3121;SDS011;1571;52.524;14.104;2023-02-03T07:38:51;29.20;;;17.50;;
3121;SDS011;1571;52.524;14.104;2023-02-03T07:41:19;25.30;;;16.70;;
3121;SDS011;1571;52.524;14.104;2023-02-03T07:43:47;27.27;;;17.60;;
3121;SDS011;1571;52.524;14.104;2023-02-03T07:46:17;30.97;;;18.47;;
3121;SDS011;1571;52.524;14.104;2023-02-03T07:48:45;30.23;;;17.93;;
3121;SDS011;1571;52.524;14.104;2023-02-03T07:51:13;29.57;;;19.87;;
3121;SDS011;1571;52.524;14.104;2023-02-03T07:53:41;25.17;;;16.90;;
3121;SDS011;1571;52.524;14.104;2023-02-03T07:56:10;26.13;;;16.27;;
3121;SDS011;1571;52.524;14.104;2023-02-03T07:58:38;31.80;;;16.90;;
3121;SDS011;1571;52.524;14.104;2023-02-03T08:01:10;26.10;;;16.33;;
3121;SDS011;1571;52.524;14.104;2023-02-03T08:03:41;24.00;;;16.73;;
3121;SDS011;1571;52.524;14.104;2023-02-03T08:06:09;24.97;;;16.17;;
3121;SDS011;1571;52.524;14.104;2023-02-03T08:08:38;27.67;;;16.33;;
3121;SDS011;1571;52.524;14.104;2023-02-03T08:11:06;22.17;;;14.90;;
3121;SDS011;1571;52.524;14.104;2023-02-03T08:13:35;23.70;;;17.40;;
3121;SDS011;1571;52.524;14.104;2023-02-03T08:16:04;25.77;;;17.17;;
3121;SDS011;1571;52.524;14.104;2023-02-03T08:18:33;23.17;;;14.03;;
3121;SDS011;1571;52.524;14.104;2023-02-03T08:21:02;22.67;;;14.27;;
3121;SDS011;1571;52.524;14.104;2023-02-03T08:23:31;21.77;;;14.10;;
3121;SDS011;1571;52.524;14.104;2023-02-03T08:25:59;23.60;;;16.00;;
3121;SDS011;1571;52.524;14.104;2023-02-03T08:28:29;23.67;;;16.13;;
3121;SDS011;1571;52.524;14.104;2023-02-03T08:30:57;19.97;;;13.00;;
3121;SDS011;1571;52.524;14.104;2023-02-03T08:33:26;22.30;;;13.90;;
3121;SDS011;1571;52.524;14.104;2023-02-03T08:35:55;16.70;;;13.07;;
3121;SDS011;1571;52.524;14.104;2023-02-03T08:38:25;19.87;;;14.60;;
3121;SDS011;1571;52.524;14.104;2023-02-03T08:40:54;19.93;;;13.10;;
3121;SDS011;1571;52.524;14.104;2023-02-03T08:43:22;17.33;;;11.10;;
3121;SDS011;1571;52.524;14.104;2023-02-03T08:45:50;18.03;;;13.27;;
3121;SDS011;1571;52.524;14.104;2023-02-03T08:48:18;18.47;;;12.33;;
3121;SDS011;1571;52.524;14.104;2023-02-03T08:50:47;15.27;;;11.60;;
3121;SDS011;1571;52.524;14.104;2023-02-03T08:53:18;18.63;;;12.10;;
3121;SDS011;1571;52.524;14.104;2023-02-03T08:55:48;15.73;;;10.27;;
3121;SDS011;1571;52.524;14.104;2023-02-03T08:58:16;21.80;;;12.33;;
3121;SDS011;1571;52.524;14.104;2023-02-03T09:00:44;14.43;;;11.20;;
3121;SDS011;1571;52.524;14.104;2023-02-03T09:03:15;11.70;;;9.40;;
3121;SDS011;1571;52.524;14.104;2023-02-03T09:05:43;12.80;;;10.47;;
3121;SDS011;1571;52.524;14.104;2023-02-03T09:08:12;10.50;;;7.60;;
3121;SDS011;1571;52.524;14.104;2023-02-03T09:10:40;15.47;;;8.80;;
3121;SDS011;1571;52.524;14.104;2023-02-03T09:13:09;14.27;;;10.00;;
3121;SDS011;1571;52.524;14.104;2023-02-03T09:15:37;12.80;;;9.40;;
3121;SDS011;1571;52.524;14.104;2023-02-03T09:18:06;10.77;;;8.00;;
3121;SDS011;1571;52.524;14.104;2023-02-03T09:20:34;12.20;;;7.90;;
3121;SDS011;1571;52.524;14.104;2023-02-03T09:23:03;14.20;;;8.50;;
3121;SDS011;1571;52.524;14.104;2023-02-03T09:25:32;9.57;;;7.77;;
3121;SDS011;1571;52.524;14.104;2023-02-03T09:28:00;12.97;;;7.57;;
3121;SDS011;1571;52.524;14.104;2023-02-03T09:30:30;10.90;;;8.33;;
3121;SDS011;1571;52.524;14.104;2023-02-03T09:32:58;10.47;;;6.83;;
3121;SDS011;1571;52.524;14.104;2023-02-03T09:35:27;8.07;;;7.00;;
3121;SDS011;1571;52.524;14.104;2023-02-03T09:37:57;4.77;;;3.67;;
3121;SDS011;1571;52.524;14.104;2023-02-03T09:40:26;9.03;;;5.53;;
3121;SDS011;1571;52.524;14.104;2023-02-03T09:43:04;4.53;;;3.67;;
3121;SDS011;1571;52.524;14.104;2023-02-03T09:45:43;5.97;;;5.17;;
3121;SDS011;1571;52.524;14.104;2023-02-03T09:48:12;9.37;;;5.50;;
3121;SDS011;1571;52.524;14.104;2023-02-03T09:50:43;5.40;;;4.27;;
3121;SDS011;1571;52.524;14.104;2023-02-03T09:53:18;4.90;;;4.50;;
3121;SDS011;1571;52.524;14.104;2023-02-03T09:55:53;5.73;;;4.80;;
3121;SDS011;1571;52.524;14.104;2023-02-03T09:58:22;5.73;;;3.83;;
3121;SDS011;1571;52.524;14.104;2023-02-03T10:00:53;9.70;;;5.40;;
3121;SDS011;1571;52.524;14.104;2023-02-03T10:03:26;5.67;;;4.93;;
3121;SDS011;1571;52.524;14.104;2023-02-03T10:06:08;5.17;;;4.03;;
3121;SDS011;1571;52.524;14.104;2023-02-03T10:08:49;5.63;;;5.07;;
3121;SDS011;1571;52.524;14.104;2023-02-03T10:11:29;5.23;;;4.73;;
3121;SDS011;1571;52.524;14.104;2023-02-03T10:14:11;7.23;;;4.27;;
3121;SDS011;1571;52.524;14.104;2023-02-03T10:16:59;5.30;;;4.57;;
3121;SDS011;1571;52.524;14.104;2023-02-03T10:19:41;4.00;;;3.50;;
3121;SDS011;1571;52.524;14.104;2023-02-03T10:22:14;4.23;;;3.60;;
3121;SDS011;1571;52.524;14.104;2023-02-03T10:24:46;6.63;;;4.63;;
3121;SDS011;1571;52.524;14.104;2023-02-03T10:27:19;4.30;;;3.90;;
3121;SDS011;1571;52.524;14.104;2023-02-03T10:29:52;3.93;;;3.20;;
3121;SDS011;1571;52.524;14.104;2023-02-03T10:32:26;4.43;;;3.37;;
3121;SDS011;1571;52.524;14.104;2023-02-03T10:34:54;3.37;;;3.17;;
3121;SDS011;1571;52.524;14.104;2023-02-03T10:37:25;5.23;;;3.53;;
3121;SDS011;1571;52.524;14.104;2023-02-03T10:39:58;3.23;;;2.97;;
3121;SDS011;1571;52.524;14.104;2023-02-03T10:42:28;3.53;;;3.23;;
3121;SDS011;1571;52.524;14.104;2023-02-03T10:45:19;2.17;;;1.97;;
3121;SDS011;1571;52.524;14.104;2023-02-03T10:47:49;4.00;;;2.90;;
3121;SDS011;1571;52.524;14.104;2023-02-03T10:50:20;4.07;;;1.30;;
3121;SDS011;1571;52.524;14.104;2023-02-03T10:52:50;1.70;;;1.60;;
3121;SDS011;1571;52.524;14.104;2023-02-03T10:55:28;3.83;;;1.83;;
3121;SDS011;1571;52.524;14.104;2023-02-03T10:57:59;4.93;;;1.53;;
3121;SDS011;1571;52.524;14.104;2023-02-03T11:00:41;2.00;;;0.90;;
3121;SDS011;1571;52.524;14.104;2023-02-03T11:03:19;2.97;;;0.80;;
3121;SDS011;1571;52.524;14.104;2023-02-03T11:06:07;1.87;;;0.93;;
3121;SDS011;1571;52.524;14.104;2023-02-03T11:08:38;2.80;;;1.10;;
3121;SDS011;1571;52.524;14.104;2023-02-03T11:11:08;1.00;;;0.73;;
3121;SDS011;1571;52.524;14.104;2023-02-03T11:13:41;4.23;;;1.20;;
3121;SDS011;1571;52.524;14.104;2023-02-03T11:16:11;4.17;;;1.20;;
3121;SDS011;1571;52.524;14.104;2023-02-03T11:18:44;3.23;;;1.13;;
3121;SDS011;1571;52.524;14.104;2023-02-03T11:21:18;7.03;;;1.73;;
3121;SDS011;1571;52.524;14.104;2023-02-03T11:23:56;8.60;;;1.60;;
3121;SDS011;1571;52.524;14.104;2023-02-03T11:26:30;9.20;;;2.60;;
3121;SDS011;1571;52.524;14.104;2023-02-03T11:29:02;9.13;;;2.13;;
3121;SDS011;1571;52.524;14.104;2023-02-03T11:31:34;11.23;;;1.47;;
3121;SDS011;1571;52.524;14.104;2023-02-03T11:34:06;14.50;;;2.63;;
3121;SDS011;1571;52.524;14.104;2023-02-03T11:36:42;5.17;;;1.10;;
3121;SDS011;1571;52.524;14.104;2023-02-03T11:39:18;9.97;;;1.50;;
3121;SDS011;1571;52.524;14.104;2023-02-03T11:41:50;3.30;;;1.30;;
3121;SDS011;1571;52.524;14.104;2023-02-03T11:44:20;8.80;;;1.47;;
3121;SDS011;1571;52.524;14.104;2023-02-03T11:46:53;10.17;;;1.70;;
3121;SDS011;1571;52.524;14.104;2023-02-03T11:49:33;15.17;;;2.50;;
3121;SDS011;1571;52.524;14.104;2023-02-03T11:52:21;5.13;;;1.30;;
3121;SDS011;1571;52.524;14.104;2023-02-03T11:55:04;3.17;;;1.23;;
3121;SDS011;1571;52.524;14.104;2023-02-03T11:57:41;7.20;;;2.07;;
3121;SDS011;1571;52.524;14.104;2023-02-03T12:00:20;11.13;;;2.70;;
3121;SDS011;1571;52.524;14.104;2023-02-03T12:03:06;7.00;;;1.20;;
3121;SDS011;1571;52.524;14.104;2023-02-03T12:05:56;6.37;;;1.50;;
3121;SDS011;1571;52.524;14.104;2023-02-03T12:08:39;8.73;;;2.27;;
3121;SDS011;1571;52.524;14.104;2023-02-03T12:11:18;7.13;;;2.13;;
3121;SDS011;1571;52.524;14.104;2023-02-03T12:13:58;9.70;;;1.33;;
3121;SDS011;1571;52.524;14.104;2023-02-03T12:16:50;8.73;;;2.70;;
3121;SDS011;1571;52.524;14.104;2023-02-03T12:19:45;7.30;;;1.40;;
3121;SDS011;1571;52.524;14.104;2023-02-03T12:22:29;15.63;;;1.80;;
3121;SDS011;1571;52.524;14.104;2023-02-03T12:25:06;6.23;;;1.30;;
3121;SDS011;1571;52.524;14.104;2023-02-03T12:27:48;12.73;;;1.43;;
3121;SDS011;1571;52.524;14.104;2023-02-03T12:30:27;9.97;;;1.87;;
3121;SDS011;1571;52.524;14.104;2023-02-03T12:33:03;5.27;;;1.60;;
3121;SDS011;1571;52.524;14.104;2023-02-03T12:35:39;10.67;;;2.60;;
3121;SDS011;1571;52.524;14.104;2023-02-03T12:38:18;6.53;;;1.70;;
3121;SDS011;1571;52.524;14.104;2023-02-03T12:40:59;5.30;;;1.57;;
3121;SDS011;1571;52.524;14.104;2023-02-03T12:43:32;6.90;;;1.47;;
3121;SDS011;1571;52.524;14.104;2023-02-03T12:46:06;4.53;;;1.60;;
3121;SDS011;1571;52.524;14.104;2023-02-03T12:48:41;10.03;;;1.67;;
3121;SDS011;1571;52.524;14.104;2023-02-03T12:51:27;10.60;;;2.83;;
3121;SDS011;1571;52.524;14.104;2023-02-03T12:54:08;3.60;;;1.10;;
3121;SDS011;1571;52.524;14.104;2023-02-03T12:56:43;9.17;;;1.87;;
3121;SDS011;1571;52.524;14.104;2023-02-03T12:59:18;9.00;;;2.40;;
3121;SDS011;1571;52.524;14.104;2023-02-03T13:01:53;12.10;;;1.97;;
3121;SDS011;1571;52.524;14.104;2023-02-03T13:04:27;8.13;;;1.13;;
3121;SDS011;1571;52.524;14.104;2023-02-03T13:07:03;4.77;;;1.00;;
3121;SDS011;1571;52.524;14.104;2023-02-03T13:09:38;2.70;;;1.00;;
3121;SDS011;1571;52.524;14.104;2023-02-03T13:12:11;3.90;;;0.80;;
3121;SDS011;1571;52.524;14.104;2023-02-03T13:14:43;2.73;;;0.60;;
3121;SDS011;1571;52.524;14.104;2023-02-03T13:17:17;0.90;;;0.57;;
3121;SDS011;1571;52.524;14.104;2023-02-03T13:19:52;1.30;;;0.40;;
3121;SDS011;1571;52.524;14.104;2023-02-03T13:22:23;5.47;;;1.37;;
3121;SDS011;1571;52.524;14.104;2023-02-03T13:24:55;12.73;;;1.20;;
3121;SDS011;1571;52.524;14.104;2023-02-03T13:27:39;5.50;;;1.17;;
3121;SDS011;1571;52.524;14.104;2023-02-03T13:30:25;2.80;;;0.80;;
3121;SDS011;1571;52.524;14.104;2023-02-03T13:36:35;5.70;;;0.80;;
3121;SDS011;1571;52.524;14.104;2023-02-03T13:39:28;10.33;;;1.23;;
3121;SDS011;1571;52.524;14.104;2023-02-03T13:42:10;8.83;;;1.57;;
3121;SDS011;1571;52.524;14.104;2023-02-03T13:44:48;5.03;;;1.67;;
3121;SDS011;1571;52.524;14.104;2023-02-03T13:47:20;13.33;;;3.10;;
3121;SDS011;1571;52.524;14.104;2023-02-03T13:49:52;9.37;;;1.90;;
3121;SDS011;1571;52.524;14.104;2023-02-03T13:52:27;4.40;;;1.53;;
3121;SDS011;1571;52.524;14.104;2023-02-03T13:55:00;8.47;;;2.30;;
3121;SDS011;1571;52.524;14.104;2023-02-03T13:57:32;15.93;;;2.70;;
3121;SDS011;1571;52.524;14.104;2023-02-03T14:00:02;9.10;;;2.13;;
3121;SDS011;1571;52.524;14.104;2023-02-03T14:02:41;11.47;;;2.90;;
3121;SDS011;1571;52.524;14.104;2023-02-03T14:23:05;14.27;;;2.40;;
3121;SDS011;1571;52.524;14.104;2023-02-03T14:25:38;11.47;;;1.80;;
3121;SDS011;1571;52.524;14.104;2023-02-03T14:28:10;11.67;;;3.20;;
3121;SDS011;1571;52.524;14.104;2023-02-03T14:33:43;12.73;;;4.40;;
3121;SDS011;1571;52.524;14.104;2023-02-03T14:36:27;12.13;;;2.20;;
3121;SDS011;1571;52.524;14.104;2023-02-03T14:39:00;19.30;;;4.40;;
3121;SDS011;1571;52.524;14.104;2023-02-03T14:41:34;20.83;;;3.20;;
3121;SDS011;1571;52.524;14.104;2023-02-03T14:44:18;13.33;;;2.73;;
3121;SDS011;1571;52.524;14.104;2023-02-03T14:47:00;10.60;;;3.73;;
3121;SDS011;1571;52.524;14.104;2023-02-03T14:49:41;8.73;;;2.20;;
3121;SDS011;1571;52.524;14.104;2023-02-03T14:52:27;18.53;;;2.90;;
3121;SDS011;1571;52.524;14.104;2023-02-03T14:55:17;10.90;;;2.70;;
3121;SDS011;1571;52.524;14.104;2023-02-03T14:57:58;14.90;;;3.60;;
3121;SDS011;1571;52.524;14.104;2023-02-03T15:00:30;20.93;;;4.97;;
3121;SDS011;1571;52.524;14.104;2023-02-03T15:03:16;12.23;;;2.80;;
3121;SDS011;1571;52.524;14.104;2023-02-03T15:05:53;14.90;;;3.60;;
3121;SDS011;1571;52.524;14.104;2023-02-03T15:08:29;14.57;;;3.00;;
3121;SDS011;1571;52.524;14.104;2023-02-03T15:14:18;13.30;;;2.43;;
3121;SDS011;1571;52.524;14.104;2023-02-03T15:16:49;15.23;;;4.80;;
3121;SDS011;1571;52.524;14.104;2023-02-03T15:19:26;13.60;;;4.40;;
3121;SDS011;1571;52.524;14.104;2023-02-03T15:21:56;18.00;;;2.57;;
3121;SDS011;1571;52.524;14.104;2023-02-03T15:24:24;19.30;;;2.63;;
3121;SDS011;1571;52.524;14.104;2023-02-03T15:26:54;11.50;;;2.60;;
3121;SDS011;1571;52.524;14.104;2023-02-03T15:29:29;17.60;;;4.43;;
3121;SDS011;1571;52.524;14.104;2023-02-03T15:32:04;14.83;;;3.00;;
3121;SDS011;1571;52.524;14.104;2023-02-03T15:34:40;10.73;;;2.77;;
3121;SDS011;1571;52.524;14.104;2023-02-03T15:37:13;6.20;;;1.63;;
3121;SDS011;1571;52.524;14.104;2023-02-03T15:39:47;10.13;;;2.70;;
3121;SDS011;1571;52.524;14.104;2023-02-03T15:42:25;13.27;;;3.80;;
3121;SDS011;1571;52.524;14.104;2023-02-03T15:44:59;14.13;;;2.57;;
3121;SDS011;1571;52.524;14.104;2023-02-03T15:47:32;11.70;;;2.47;;
3121;SDS011;1571;52.524;14.104;2023-02-03T15:50:13;10.70;;;2.50;;
3121;SDS011;1571;52.524;14.104;2023-02-03T15:52:51;18.47;;;2.13;;
3121;SDS011;1571;52.524;14.104;2023-02-03T15:55:33;8.90;;;3.50;;